createdAt,value
2018-06-12T00:04:51.978Z,12.8
2018-06-12T00:14:51.201Z,12.9
2018-06-12T00:24:50.408Z,12.9
2018-06-12T00:34:49.993Z,12.9
2018-06-12T00:44:49.173Z,12.9
2018-06-12T00:54:48.399Z,12.6
2018-06-12T01:04:47.652Z,12.6
2018-06-12T01:14:46.582Z,12.8
2018-06-12T01:24:45.831Z,13
2018-06-12T01:34:45.039Z,12.9
2018-06-12T01:44:44.320Z,12.5
2018-06-12T01:54:43.510Z,13
2018-06-12T02:04:42.824Z,12.6
2018-06-12T02:14:41.968Z,12.9
2018-06-12T02:24:41.206Z,12.7
2018-06-12T02:34:40.430Z,12.6
2018-06-12T02:44:39.777Z,12.8
2018-06-12T02:54:39.214Z,13
2018-06-12T03:04:38.121Z,12.9
2018-06-12T03:14:37.372Z,12.8
2018-06-12T03:24:36.619Z,13
2018-06-12T03:34:36.139Z,12.9
2018-06-12T03:44:35.073Z,13.1
2018-06-12T03:54:34.288Z,13.1
2018-06-12T04:04:33.522Z,13.6
2018-06-12T04:14:32.782Z,14.1
2018-06-12T04:24:32.015Z,14.2
2018-06-12T04:34:31.225Z,14.4
2018-06-12T04:44:30.470Z,14
2018-06-12T04:54:29.740Z,13.9
2018-06-12T05:04:28.944Z,14.3
2018-06-12T05:14:28.487Z,14.2
2018-06-12T05:24:27.708Z,14.5
2018-06-12T05:34:26.944Z,13.9
2018-06-12T05:44:25.863Z,14.1
2018-06-12T05:54:25.091Z,13.8
2018-06-12T06:04:24.619Z,14.5
2018-06-12T06:14:23.560Z,14.5
2018-06-12T06:24:22.815Z,14.3
2018-06-12T06:34:22.018Z,13.9
2018-06-12T15:13:47.860Z,13
2018-06-12T15:23:47.092Z,13
2018-06-12T15:33:46.383Z,13.1
2018-06-12T15:43:45.576Z,13.1
2018-06-12T15:53:45.101Z,12.8
2018-06-12T16:03:44.037Z,13
2018-06-12T16:13:43.284Z,12.9
2018-06-12T16:23:42.798Z,13
2018-06-12T16:33:41.755Z,12.9
2018-06-12T16:43:40.992Z,13.1
2018-06-12T16:53:40.526Z,12.8
2018-06-12T17:03:39.462Z,13
2018-06-12T17:13:38.716Z,12.7
2018-06-12T17:23:37.933Z,12.7
2018-06-12T17:33:37.169Z,12.9
2018-06-12T17:43:36.492Z,13.1
2018-06-12T17:53:36.204Z,13
2018-06-12T18:03:34.882Z,13.1
2018-06-12T18:13:34.398Z,12.8
2018-06-12T18:23:33.361Z,12.6
2018-06-12T18:33:32.873Z,13
2018-06-12T18:43:32.112Z,12.9
2018-06-12T18:53:31.069Z,13
2018-06-12T19:03:30.323Z,12.6
2018-06-12T19:13:29.577Z,12.9
2018-06-12T19:23:29.113Z,12.5
2018-06-12T19:33:28.070Z,12.9
2018-06-12T19:43:27.306Z,12.5
2018-06-12T19:53:26.832Z,12.5
2018-06-12T20:03:25.731Z,12.9
2018-06-12T20:13:24.970Z,12.9
2018-06-12T20:23:24.208Z,13
2018-06-12T20:33:23.528Z,12.8
2018-06-12T20:43:22.681Z,12.9
2018-06-12T20:53:21.916Z,12.9
2018-06-12T21:03:21.168Z,13
2018-06-12T21:13:20.686Z,12.9
2018-06-12T21:23:19.914Z,13
2018-06-12T21:33:19.159Z,12.8
2018-06-12T21:43:18.100Z,13
2018-06-12T21:53:17.349Z,12.5
2018-06-12T22:03:16.572Z,13
2018-06-12T22:13:16.138Z,12.6
2018-06-12T22:23:15.043Z,13
2018-06-12T22:33:14.286Z,12.5
2018-06-12T22:43:13.517Z,12.9
2018-06-12T22:53:12.754Z,13
2018-06-12T23:03:12.273Z,12.5
2018-06-12T23:13:11.226Z,12.6
2018-06-12T23:23:10.470Z,13
2018-06-12T23:33:09.700Z,12.6
2018-06-12T23:43:08.993Z,12.6
2018-06-12T23:53:08.267Z,12.9
